sensor_id;sensor_type;location;lat;lon;timestamp;temperature;humidity
37886;DHT22;23726;52.520;13.434;2022-09-11T00:01:03;24.80;49.00
37886;DHT22;23726;52.520;13.434;2022-09-11T00:03:29;24.80;49.00
37886;DHT22;23726;52.520;13.434;2022-09-11T00:06:04;24.80;49.00
37886;DHT22;23726;52.520;13.434;2022-09-11T00:08:31;24.70;48.90
37886;DHT22;23726;52.520;13.434;2022-09-11T00:11:15;24.80;48.90
37886;DHT22;23726;52.520;13.434;2022-09-11T00:13:48;24.80;48.90
37886;DHT22;23726;52.520;13.434;2022-09-11T00:16:23;24.70;49.00
37886;DHT22;23726;52.520;13.434;2022-09-11T00:18:53;24.80;49.10
37886;DHT22;23726;52.520;13.434;2022-09-11T00:21:19;24.70;49.00
37886;DHT22;23726;52.520;13.434;2022-09-11T00:23:45;24.70;49.00
37886;DHT22;23726;52.520;13.434;2022-09-11T00:26:15;24.70;48.90
37886;DHT22;23726;52.520;13.434;2022-09-11T00:28:42;24.80;49.00
37886;DHT22;23726;52.520;13.434;2022-09-11T00:31:14;24.80;49.00
37886;DHT22;23726;52.520;13.434;2022-09-11T00:33:40;24.80;49.00
37886;DHT22;23726;52.520;13.434;2022-09-11T00:36:14;24.70;48.90
37886;DHT22;23726;52.520;13.434;2022-09-11T00:38:40;24.70;48.90
37886;DHT22;23726;52.520;13.434;2022-09-11T00:41:14;24.70;48.80
37886;DHT22;23726;52.520;13.434;2022-09-11T00:44:06;24.70;48.80
37886;DHT22;23726;52.520;13.434;2022-09-11T00:46:41;24.80;48.80
37886;DHT22;23726;52.520;13.434;2022-09-11T00:52:05;24.70;48.80
37886;DHT22;23726;52.520;13.434;2022-09-11T00:54:36;24.80;49.00
37886;DHT22;23726;52.520;13.434;2022-09-11T00:57:05;24.70;48.90
37886;DHT22;23726;52.520;13.434;2022-09-11T00:59:33;24.70;48.90
37886;DHT22;23726;52.520;13.434;2022-09-11T01:02:00;24.70;49.00
37886;DHT22;23726;52.520;13.434;2022-09-11T01:04:26;24.80;48.90
37886;DHT22;23726;52.520;13.434;2022-09-11T01:06:55;24.70;48.90
37886;DHT22;23726;52.520;13.434;2022-09-11T01:09:27;24.70;48.70
37886;DHT22;23726;52.520;13.434;2022-09-11T01:15:13;24.70;49.00
37886;DHT22;23726;52.520;13.434;2022-09-11T01:17:59;24.70;49.20
37886;DHT22;23726;52.520;13.434;2022-09-11T01:26:41;24.70;48.90
37886;DHT22;23726;52.520;13.434;2022-09-11T01:29:24;24.70;49.00
37886;DHT22;23726;52.520;13.434;2022-09-11T01:32:07;24.70;48.90
37886;DHT22;23726;52.520;13.434;2022-09-11T01:37:41;24.70;49.00
37886;DHT22;23726;52.520;13.434;2022-09-11T01:43:20;24.70;49.10
37886;DHT22;23726;52.520;13.434;2022-09-11T01:45:52;24.70;49.10
37886;DHT22;23726;52.520;13.434;2022-09-11T01:48:23;24.70;49.00
37886;DHT22;23726;52.520;13.434;2022-09-11T01:50:51;24.70;48.90
37886;DHT22;23726;52.520;13.434;2022-09-11T01:53:22;24.70;49.10
37886;DHT22;23726;52.520;13.434;2022-09-11T01:56:02;24.70;48.90
37886;DHT22;23726;52.520;13.434;2022-09-11T01:58:32;24.70;48.90
37886;DHT22;23726;52.520;13.434;2022-09-11T02:01:06;24.70;49.00
37886;DHT22;23726;52.520;13.434;2022-09-11T02:03:39;24.70;49.00
37886;DHT22;23726;52.520;13.434;2022-09-11T02:06:29;24.70;49.00
37886;DHT22;23726;52.520;13.434;2022-09-11T02:08:58;24.70;49.10
37886;DHT22;23726;52.520;13.434;2022-09-11T02:11:25;24.70;49.00
37886;DHT22;23726;52.520;13.434;2022-09-11T02:14:06;24.70;49.20
37886;DHT22;23726;52.520;13.434;2022-09-11T02:16:52;24.70;49.20
37886;DHT22;23726;52.520;13.434;2022-09-11T02:19:25;24.70;49.70
37886;DHT22;23726;52.520;13.434;2022-09-11T02:21:52;24.70;48.90
37886;DHT22;23726;52.520;13.434;2022-09-11T02:24:19;24.70;49.00
37886;DHT22;23726;52.520;13.434;2022-09-11T02:26:53;24.70;49.00
37886;DHT22;23726;52.520;13.434;2022-09-11T02:29:19;24.70;48.80
37886;DHT22;23726;52.520;13.434;2022-09-11T02:31:45;24.70;49.10
37886;DHT22;23726;52.520;13.434;2022-09-11T02:34:14;24.70;48.80
37886;DHT22;23726;52.520;13.434;2022-09-11T02:37:01;24.70;49.00
37886;DHT22;23726;52.520;13.434;2022-09-11T02:42:25;24.70;49.20
37886;DHT22;23726;52.520;13.434;2022-09-11T02:53:58;24.70;48.90
37886;DHT22;23726;52.520;13.434;2022-09-11T02:56:45;24.70;49.30
37886;DHT22;23726;52.520;13.434;2022-09-11T02:59:25;24.70;49.10
37886;DHT22;23726;52.520;13.434;2022-09-11T03:01:53;24.70;49.00
37886;DHT22;23726;52.520;13.434;2022-09-11T03:04:22;24.70;48.90
37886;DHT22;23726;52.520;13.434;2022-09-11T03:06:51;24.70;49.00
37886;DHT22;23726;52.520;13.434;2022-09-11T03:09:18;24.70;49.20
37886;DHT22;23726;52.520;13.434;2022-09-11T03:11:45;24.70;49.00
37886;DHT22;23726;52.520;13.434;2022-09-11T03:14:11;24.70;49.00
37886;DHT22;23726;52.520;13.434;2022-09-11T03:16:38;24.70;49.10
37886;DHT22;23726;52.520;13.434;2022-09-11T03:19:05;24.70;49.10
37886;DHT22;23726;52.520;13.434;2022-09-11T03:21:31;24.70;49.30
37886;DHT22;23726;52.520;13.434;2022-09-11T03:23:57;24.70;49.10
37886;DHT22;23726;52.520;13.434;2022-09-11T03:26:23;24.70;49.10
37886;DHT22;23726;52.520;13.434;2022-09-11T03:28:49;24.70;48.90
37886;DHT22;23726;52.520;13.434;2022-09-11T03:31:16;24.70;48.80
37886;DHT22;23726;52.520;13.434;2022-09-11T03:33:42;24.70;48.80
37886;DHT22;23726;52.520;13.434;2022-09-11T03:36:09;24.70;48.70
37886;DHT22;23726;52.520;13.434;2022-09-11T03:38:35;24.70;48.70
37886;DHT22;23726;52.520;13.434;2022-09-11T03:41:01;24.70;48.80
37886;DHT22;23726;52.520;13.434;2022-09-11T03:43:28;24.70;48.70
37886;DHT22;23726;52.520;13.434;2022-09-11T03:45:56;24.70;48.70
37886;DHT22;23726;52.520;13.434;2022-09-11T03:48:22;24.70;48.70
37886;DHT22;23726;52.520;13.434;2022-09-11T03:50:49;24.70;48.90
37886;DHT22;23726;52.520;13.434;2022-09-11T03:53:15;24.70;48.70
37886;DHT22;23726;52.520;13.434;2022-09-11T03:55:40;24.70;48.70
37886;DHT22;23726;52.520;13.434;2022-09-11T03:58:15;24.70;48.60
37886;DHT22;23726;52.520;13.434;2022-09-11T04:00:43;24.70;48.70
37886;DHT22;23726;52.520;13.434;2022-09-11T04:03:10;24.70;48.70
37886;DHT22;23726;52.520;13.434;2022-09-11T04:05:36;24.70;48.70
37886;DHT22;23726;52.520;13.434;2022-09-11T04:08:04;24.70;48.70
37886;DHT22;23726;52.520;13.434;2022-09-11T04:10:31;24.70;48.60
37886;DHT22;23726;52.520;13.434;2022-09-11T04:12:57;24.70;48.70
37886;DHT22;23726;52.520;13.434;2022-09-11T04:15:26;24.70;48.70
37886;DHT22;23726;52.520;13.434;2022-09-11T04:17:52;24.70;48.60
37886;DHT22;23726;52.520;13.434;2022-09-11T04:20:19;24.70;48.70
37886;DHT22;23726;52.520;13.434;2022-09-11T04:22:46;24.70;48.90
37886;DHT22;23726;52.520;13.434;2022-09-11T04:25:12;24.70;48.70
37886;DHT22;23726;52.520;13.434;2022-09-11T04:27:40;24.70;49.10
37886;DHT22;23726;52.520;13.434;2022-09-11T04:30:08;24.70;48.80
37886;DHT22;23726;52.520;13.434;2022-09-11T04:32:33;24.70;48.80
37886;DHT22;23726;52.520;13.434;2022-09-11T04:35:00;24.70;48.70
37886;DHT22;23726;52.520;13.434;2022-09-11T04:37:27;24.70;48.70
37886;DHT22;23726;52.520;13.434;2022-09-11T04:39:53;24.70;48.90
37886;DHT22;23726;52.520;13.434;2022-09-11T04:42:19;24.70;48.70
37886;DHT22;23726;52.520;13.434;2022-09-11T04:44:44;24.70;48.80
37886;DHT22;23726;52.520;13.434;2022-09-11T04:47:11;24.70;48.80
37886;DHT22;23726;52.520;13.434;2022-09-11T04:49:36;24.70;48.70
37886;DHT22;23726;52.520;13.434;2022-09-11T04:52:03;24.70;48.70
37886;DHT22;23726;52.520;13.434;2022-09-11T04:54:30;24.70;48.70
37886;DHT22;23726;52.520;13.434;2022-09-11T04:56:58;24.70;48.80
37886;DHT22;23726;52.520;13.434;2022-09-11T04:59:26;24.70;48.90
37886;DHT22;23726;52.520;13.434;2022-09-11T05:01:52;24.70;48.90
37886;DHT22;23726;52.520;13.434;2022-09-11T05:04:19;24.70;48.90
37886;DHT22;23726;52.520;13.434;2022-09-11T05:06:45;24.70;49.30
37886;DHT22;23726;52.520;13.434;2022-09-11T05:09:13;24.70;48.70
37886;DHT22;23726;52.520;13.434;2022-09-11T05:11:39;24.70;48.90
37886;DHT22;23726;52.520;13.434;2022-09-11T05:14:05;24.70;49.00
37886;DHT22;23726;52.520;13.434;2022-09-11T05:16:32;24.70;48.70
37886;DHT22;23726;52.520;13.434;2022-09-11T05:19:02;24.70;48.80
37886;DHT22;23726;52.520;13.434;2022-09-11T05:21:31;24.70;48.60
37886;DHT22;23726;52.520;13.434;2022-09-11T05:23:58;24.70;48.70
37886;DHT22;23726;52.520;13.434;2022-09-11T05:26:35;24.70;49.10
37886;DHT22;23726;52.520;13.434;2022-09-11T05:29:08;24.70;48.70
37886;DHT22;23726;52.520;13.434;2022-09-11T05:31:35;24.70;48.70
37886;DHT22;23726;52.520;13.434;2022-09-11T05:34:01;24.70;48.70
37886;DHT22;23726;52.520;13.434;2022-09-11T05:36:29;24.70;48.70
37886;DHT22;23726;52.520;13.434;2022-09-11T05:38:58;24.70;48.80
37886;DHT22;23726;52.520;13.434;2022-09-11T05:41:25;24.70;48.70
37886;DHT22;23726;52.520;13.434;2022-09-11T05:43:51;24.70;48.60
37886;DHT22;23726;52.520;13.434;2022-09-11T05:46:19;24.70;48.80
37886;DHT22;23726;52.520;13.434;2022-09-11T05:48:53;24.70;48.70
37886;DHT22;23726;52.520;13.434;2022-09-11T05:51:20;24.70;48.70
37886;DHT22;23726;52.520;13.434;2022-09-11T05:53:46;24.70;48.80
37886;DHT22;23726;52.520;13.434;2022-09-11T05:56:15;24.70;48.90
37886;DHT22;23726;52.520;13.434;2022-09-11T05:58:43;24.70;48.80
37886;DHT22;23726;52.520;13.434;2022-09-11T06:01:10;24.70;49.00
37886;DHT22;23726;52.520;13.434;2022-09-11T06:03:37;24.70;48.90
37886;DHT22;23726;52.520;13.434;2022-09-11T06:06:05;24.70;48.70
37886;DHT22;23726;52.520;13.434;2022-09-11T06:08:31;24.70;48.80
37886;DHT22;23726;52.520;13.434;2022-09-11T06:11:00;24.70;48.80
37886;DHT22;23726;52.520;13.434;2022-09-11T06:13:31;24.70;48.90
37886;DHT22;23726;52.520;13.434;2022-09-11T06:16:00;24.70;48.90
37886;DHT22;23726;52.520;13.434;2022-09-11T06:18:28;24.70;48.70
37886;DHT22;23726;52.520;13.434;2022-09-11T06:21:05;24.70;48.90
37886;DHT22;23726;52.520;13.434;2022-09-11T06:23:32;24.70;49.00
37886;DHT22;23726;52.520;13.434;2022-09-11T06:26:05;24.70;48.90
37886;DHT22;23726;52.520;13.434;2022-09-11T06:28:32;24.70;48.90
37886;DHT22;23726;52.520;13.434;2022-09-11T06:31:04;24.70;48.80
37886;DHT22;23726;52.520;13.434;2022-09-11T06:33:35;24.70;49.10
37886;DHT22;23726;52.520;13.434;2022-09-11T06:36:03;24.70;49.50
37886;DHT22;23726;52.520;13.434;2022-09-11T06:38:29;24.60;49.00
37886;DHT22;23726;52.520;13.434;2022-09-11T06:41:02;24.70;49.00
37886;DHT22;23726;52.520;13.434;2022-09-11T06:43:28;24.60;48.90
37886;DHT22;23726;52.520;13.434;2022-09-11T06:46:05;24.70;48.90
37886;DHT22;23726;52.520;13.434;2022-09-11T06:48:32;24.70;49.00
37886;DHT22;23726;52.520;13.434;2022-09-11T06:51:03;24.70;48.90
37886;DHT22;23726;52.520;13.434;2022-09-11T06:53:29;24.70;48.90
37886;DHT22;23726;52.520;13.434;2022-09-11T06:55:59;24.70;48.90
37886;DHT22;23726;52.520;13.434;2022-09-11T06:58:25;24.70;48.90
37886;DHT22;23726;52.520;13.434;2022-09-11T07:00:51;24.70;49.00
37886;DHT22;23726;52.520;13.434;2022-09-11T07:03:17;24.60;48.80
37886;DHT22;23726;52.520;13.434;2022-09-11T07:05:46;24.60;48.90
37886;DHT22;23726;52.520;13.434;2022-09-11T07:08:13;24.70;48.90
37886;DHT22;23726;52.520;13.434;2022-09-11T07:10:41;24.60;48.90
37886;DHT22;23726;52.520;13.434;2022-09-11T07:13:07;24.70;49.00
37886;DHT22;23726;52.520;13.434;2022-09-11T07:15:32;24.70;49.00
37886;DHT22;23726;52.520;13.434;2022-09-11T07:17:59;24.70;49.00
37886;DHT22;23726;52.520;13.434;2022-09-11T07:20:26;24.70;48.90
37886;DHT22;23726;52.520;13.434;2022-09-11T07:22:52;24.70;48.90
37886;DHT22;23726;52.520;13.434;2022-09-11T07:25:18;24.70;49.00
37886;DHT22;23726;52.520;13.434;2022-09-11T07:27:44;24.70;49.50
37886;DHT22;23726;52.520;13.434;2022-09-11T07:30:11;24.70;49.00
37886;DHT22;23726;52.520;13.434;2022-09-11T07:32:36;24.70;49.00
37886;DHT22;23726;52.520;13.434;2022-09-11T07:35:03;24.70;49.00
37886;DHT22;23726;52.520;13.434;2022-09-11T07:37:29;24.70;49.00
37886;DHT22;23726;52.520;13.434;2022-09-11T07:39:55;24.70;49.10
37886;DHT22;23726;52.520;13.434;2022-09-11T07:42:21;24.60;49.00
37886;DHT22;23726;52.520;13.434;2022-09-11T07:44:46;24.70;49.10
37886;DHT22;23726;52.520;13.434;2022-09-11T07:47:12;24.70;49.30
37886;DHT22;23726;52.520;13.434;2022-09-11T07:49:39;24.60;49.00
37886;DHT22;23726;52.520;13.434;2022-09-11T07:52:04;24.70;49.10
37886;DHT22;23726;52.520;13.434;2022-09-11T07:54:31;24.70;49.20
37886;DHT22;23726;52.520;13.434;2022-09-11T07:56:59;24.70;49.20
37886;DHT22;23726;52.520;13.434;2022-09-11T07:59:26;24.60;49.20
37886;DHT22;23726;52.520;13.434;2022-09-11T08:01:53;24.70;49.20
37886;DHT22;23726;52.520;13.434;2022-09-11T08:04:20;24.70;49.40
37886;DHT22;23726;52.520;13.434;2022-09-11T08:06:45;24.60;49.20
37886;DHT22;23726;52.520;13.434;2022-09-11T08:09:13;24.70;49.30
37886;DHT22;23726;52.520;13.434;2022-09-11T08:11:44;24.70;49.20
37886;DHT22;23726;52.520;13.434;2022-09-11T08:14:10;24.70;49.40
37886;DHT22;23726;52.520;13.434;2022-09-11T08:16:39;24.70;49.30
37886;DHT22;23726;52.520;13.434;2022-09-11T08:19:09;24.70;49.30
37886;DHT22;23726;52.520;13.434;2022-09-11T08:21:38;24.70;49.30
37886;DHT22;23726;52.520;13.434;2022-09-11T08:24:04;24.70;49.20
37886;DHT22;23726;52.520;13.434;2022-09-11T08:26:35;24.70;49.30
37886;DHT22;23726;52.520;13.434;2022-09-11T08:29:00;24.70;49.30
37886;DHT22;23726;52.520;13.434;2022-09-11T08:31:27;24.70;49.30
37886;DHT22;23726;52.520;13.434;2022-09-11T08:33:54;24.70;49.30
37886;DHT22;23726;52.520;13.434;2022-09-11T08:36:20;24.70;49.30
37886;DHT22;23726;52.520;13.434;2022-09-11T08:38:46;24.70;49.30
37886;DHT22;23726;52.520;13.434;2022-09-11T08:41:26;24.70;49.30
37886;DHT22;23726;52.520;13.434;2022-09-11T08:43:57;24.70;49.30
37886;DHT22;23726;52.520;13.434;2022-09-11T08:46:26;24.70;49.40
37886;DHT22;23726;52.520;13.434;2022-09-11T08:49:16;24.70;49.80
37886;DHT22;23726;52.520;13.434;2022-09-11T08:51:44;24.70;49.30
37886;DHT22;23726;52.520;13.434;2022-09-11T08:54:21;24.70;49.30
37886;DHT22;23726;52.520;13.434;2022-09-11T08:56:49;24.60;49.80
37886;DHT22;23726;52.520;13.434;2022-09-11T08:59:36;24.70;49.50
37886;DHT22;23726;52.520;13.434;2022-09-11T09:02:14;24.70;49.80
37886;DHT22;23726;52.520;13.434;2022-09-11T09:07:36;24.70;49.40
37886;DHT22;23726;52.520;13.434;2022-09-11T09:18:37;24.70;49.50
37886;DHT22;23726;52.520;13.434;2022-09-11T09:21:19;24.70;49.60
37886;DHT22;23726;52.520;13.434;2022-09-11T09:23:53;24.60;49.90
37886;DHT22;23726;52.520;13.434;2022-09-11T09:26:19;24.70;50.20
37886;DHT22;23726;52.520;13.434;2022-09-11T09:28:51;24.70;49.80
37886;DHT22;23726;52.520;13.434;2022-09-11T09:31:22;24.70;49.70
37886;DHT22;23726;52.520;13.434;2022-09-11T09:34:27;24.70;49.70
37886;DHT22;23726;52.520;13.434;2022-09-11T09:37:04;24.70;50.00
37886;DHT22;23726;52.520;13.434;2022-09-11T09:39:30;24.60;49.70
37886;DHT22;23726;52.520;13.434;2022-09-11T09:47:31;24.70;49.70
37886;DHT22;23726;52.520;13.434;2022-09-11T09:49:57;24.60;49.70
37886;DHT22;23726;52.520;13.434;2022-09-11T09:52:28;24.60;49.80
37886;DHT22;23726;52.520;13.434;2022-09-11T09:55:04;24.60;49.60
37886;DHT22;23726;52.520;13.434;2022-09-11T09:57:34;24.60;49.60
37886;DHT22;23726;52.520;13.434;2022-09-11T10:00:18;24.60;49.50
37886;DHT22;23726;52.520;13.434;2022-09-11T10:02:53;24.60;49.50
37886;DHT22;23726;52.520;13.434;2022-09-11T10:08:04;24.60;49.50
37886;DHT22;23726;52.520;13.434;2022-09-11T10:10:32;24.60;49.40
37886;DHT22;23726;52.520;13.434;2022-09-11T10:13:05;24.60;49.50
37886;DHT22;23726;52.520;13.434;2022-09-11T10:15:37;24.70;49.40
37886;DHT22;23726;52.520;13.434;2022-09-11T10:18:36;24.70;49.50
37886;DHT22;23726;52.520;13.434;2022-09-11T10:23:53;24.60;49.30
37886;DHT22;23726;52.520;13.434;2022-09-11T10:26:26;24.60;49.40
37886;DHT22;23726;52.520;13.434;2022-09-11T10:28:55;24.60;49.50
37886;DHT22;23726;52.520;13.434;2022-09-11T10:31:22;24.60;49.40
37886;DHT22;23726;52.520;13.434;2022-09-11T10:33:53;24.70;49.60
37886;DHT22;23726;52.520;13.434;2022-09-11T10:36:25;24.70;49.50
37886;DHT22;23726;52.520;13.434;2022-09-11T10:38:51;24.70;49.60
37886;DHT22;23726;52.520;13.434;2022-09-11T10:41:20;24.70;49.50
37886;DHT22;23726;52.520;13.434;2022-09-11T10:46:40;24.70;49.60
37886;DHT22;23726;52.520;13.434;2022-09-11T10:49:18;24.70;49.50
37886;DHT22;23726;52.520;13.434;2022-09-11T10:52:17;24.60;49.50
37886;DHT22;23726;52.520;13.434;2022-09-11T10:54:52;24.70;49.60
37886;DHT22;23726;52.520;13.434;2022-09-11T10:58:13;24.70;49.70
37886;DHT22;23726;52.520;13.434;2022-09-11T11:00:31;24.70;49.60
37886;DHT22;23726;52.520;13.434;2022-09-11T11:02:58;24.60;50.10
37886;DHT22;23726;52.520;13.434;2022-09-11T11:05:45;24.70;50.10
37886;DHT22;23726;52.520;13.434;2022-09-11T11:11:24;24.70;49.80
37886;DHT22;23726;52.520;13.434;2022-09-11T11:17:26;24.60;49.60
37886;DHT22;23726;52.520;13.434;2022-09-11T11:20:24;24.70;49.70
37886;DHT22;23726;52.520;13.434;2022-09-11T11:25:43;24.70;49.60
37886;DHT22;23726;52.520;13.434;2022-09-11T11:28:26;24.70;49.60
37886;DHT22;23726;52.520;13.434;2022-09-11T11:37:03;24.70;49.50
37886;DHT22;23726;52.520;13.434;2022-09-11T11:42:25;24.70;49.70
37886;DHT22;23726;52.520;13.434;2022-09-11T11:44:58;24.70;49.60
37886;DHT22;23726;52.520;13.434;2022-09-11T11:47:29;24.60;49.70
37886;DHT22;23726;52.520;13.434;2022-09-11T11:50:28;24.60;49.70
37886;DHT22;23726;52.520;13.434;2022-09-11T11:53:05;24.60;49.80
37886;DHT22;23726;52.520;13.434;2022-09-11T11:55:49;24.70;49.60
37886;DHT22;23726;52.520;13.434;2022-09-11T11:58:29;24.70;49.60
37886;DHT22;23726;52.520;13.434;2022-09-11T12:00:59;24.70;49.50
37886;DHT22;23726;52.520;13.434;2022-09-11T12:03:39;24.60;49.40
37886;DHT22;23726;52.520;13.434;2022-09-11T12:06:07;24.70;49.40
37886;DHT22;23726;52.520;13.434;2022-09-11T12:08:43;24.70;49.30
37886;DHT22;23726;52.520;13.434;2022-09-11T12:11:11;24.70;49.40
37886;DHT22;23726;52.520;13.434;2022-09-11T12:13:42;24.60;49.40
37886;DHT22;23726;52.520;13.434;2022-09-11T12:16:23;24.60;48.90
37886;DHT22;23726;52.520;13.434;2022-09-11T12:21:41;24.40;48.70
37886;DHT22;23726;52.520;13.434;2022-09-11T12:24:48;24.40;48.90
37886;DHT22;23726;52.520;13.434;2022-09-11T12:32:50;24.40;49.00
37886;DHT22;23726;52.520;13.434;2022-09-11T12:35:45;24.40;49.10
37886;DHT22;23726;52.520;13.434;2022-09-11T12:38:34;24.40;49.00
37886;DHT22;23726;52.520;13.434;2022-09-11T12:41:05;24.40;49.10
37886;DHT22;23726;52.520;13.434;2022-09-11T12:46:07;24.50;49.30
37886;DHT22;23726;52.520;13.434;2022-09-11T12:48:57;24.50;49.20
37886;DHT22;23726;52.520;13.434;2022-09-11T12:51:34;24.50;49.40
37886;DHT22;23726;52.520;13.434;2022-09-11T12:54:15;24.50;49.70
37886;DHT22;23726;52.520;13.434;2022-09-11T12:56:50;24.50;49.70
37886;DHT22;23726;52.520;13.434;2022-09-11T12:59:24;24.50;49.70
37886;DHT22;23726;52.520;13.434;2022-09-11T13:01:51;24.60;49.60
37886;DHT22;23726;52.520;13.434;2022-09-11T13:04:20;24.50;49.60
37886;DHT22;23726;52.520;13.434;2022-09-11T13:07:00;24.60;49.50
37886;DHT22;23726;52.520;13.434;2022-09-11T13:09:32;24.60;49.30
37886;DHT22;23726;52.520;13.434;2022-09-11T13:15:01;24.50;49.40
37886;DHT22;23726;52.520;13.434;2022-09-11T13:17:32;24.50;49.20
37886;DHT22;23726;52.520;13.434;2022-09-11T13:22:31;24.50;48.80
37886;DHT22;23726;52.520;13.434;2022-09-11T13:25:05;24.50;48.50
37886;DHT22;23726;52.520;13.434;2022-09-11T13:27:31;24.50;48.50
37886;DHT22;23726;52.520;13.434;2022-09-11T13:30:01;24.50;48.70
37886;DHT22;23726;52.520;13.434;2022-09-11T13:32:27;24.50;48.40
37886;DHT22;23726;52.520;13.434;2022-09-11T13:34:55;24.50;48.40
37886;DHT22;23726;52.520;13.434;2022-09-11T13:37:38;24.50;48.40
37886;DHT22;23726;52.520;13.434;2022-09-11T13:40:06;24.50;48.40
37886;DHT22;23726;52.520;13.434;2022-09-11T13:42:38;24.50;48.50
37886;DHT22;23726;52.520;13.434;2022-09-11T13:45:06;24.50;48.50
37886;DHT22;23726;52.520;13.434;2022-09-11T13:47:32;24.50;48.50
37886;DHT22;23726;52.520;13.434;2022-09-11T13:50:09;24.60;48.50
37886;DHT22;23726;52.520;13.434;2022-09-11T13:52:37;24.60;48.60
37886;DHT22;23726;52.520;13.434;2022-09-11T13:55:18;24.50;48.60
37886;DHT22;23726;52.520;13.434;2022-09-11T14:00:42;24.60;48.50
37886;DHT22;23726;52.520;13.434;2022-09-11T14:03:25;24.50;48.40
37886;DHT22;23726;52.520;13.434;2022-09-11T14:06:07;24.50;48.50
37886;DHT22;23726;52.520;13.434;2022-09-11T14:08:39;24.50;48.50
37886;DHT22;23726;52.520;13.434;2022-09-11T14:14:18;24.60;48.50
37886;DHT22;23726;52.520;13.434;2022-09-11T14:16:26;24.60;48.40
37886;DHT22;23726;52.520;13.434;2022-09-11T14:19:14;24.60;48.50
37886;DHT22;23726;52.520;13.434;2022-09-11T14:21:43;24.60;48.60
37886;DHT22;23726;52.520;13.434;2022-09-11T14:24:34;24.60;48.50
37886;DHT22;23726;52.520;13.434;2022-09-11T14:29:57;24.70;48.50
37886;DHT22;23726;52.520;13.434;2022-09-11T14:32:36;24.60;48.40
37886;DHT22;23726;52.520;13.434;2022-09-11T14:35:04;24.70;48.20
37886;DHT22;23726;52.520;13.434;2022-09-11T14:37:34;24.70;48.20
37886;DHT22;23726;52.520;13.434;2022-09-11T14:40:05;24.70;48.00
37886;DHT22;23726;52.520;13.434;2022-09-11T14:42:33;24.70;48.10
37886;DHT22;23726;52.520;13.434;2022-09-11T14:45:07;24.70;48.10
37886;DHT22;23726;52.520;13.434;2022-09-11T14:47:33;24.70;48.00
37886;DHT22;23726;52.520;13.434;2022-09-11T14:50:00;24.80;47.90
37886;DHT22;23726;52.520;13.434;2022-09-11T14:52:28;24.80;47.70
37886;DHT22;23726;52.520;13.434;2022-09-11T14:54:54;24.80;47.70
37886;DHT22;23726;52.520;13.434;2022-09-11T14:57:28;24.80;47.60
37886;DHT22;23726;52.520;13.434;2022-09-11T14:59:54;24.80;47.60
37886;DHT22;23726;52.520;13.434;2022-09-11T15:02:22;24.80;47.40
37886;DHT22;23726;52.520;13.434;2022-09-11T15:04:49;24.80;47.40
37886;DHT22;23726;52.520;13.434;2022-09-11T15:07:15;24.80;47.40
37886;DHT22;23726;52.520;13.434;2022-09-11T15:09:42;24.80;47.40
37886;DHT22;23726;52.520;13.434;2022-09-11T15:12:10;24.80;47.40
37886;DHT22;23726;52.520;13.434;2022-09-11T15:14:37;24.80;47.40
37886;DHT22;23726;52.520;13.434;2022-09-11T15:17:05;24.80;47.50
37886;DHT22;23726;52.520;13.434;2022-09-11T15:19:31;24.80;47.60
37886;DHT22;23726;52.520;13.434;2022-09-11T15:22:00;24.80;47.70
37886;DHT22;23726;52.520;13.434;2022-09-11T15:24:27;24.70;47.70
37886;DHT22;23726;52.520;13.434;2022-09-11T15:26:53;24.70;47.80
37886;DHT22;23726;52.520;13.434;2022-09-11T15:29:20;24.70;47.80
37886;DHT22;23726;52.520;13.434;2022-09-11T15:31:47;24.70;47.90
37886;DHT22;23726;52.520;13.434;2022-09-11T15:34:15;24.70;47.90
37886;DHT22;23726;52.520;13.434;2022-09-11T15:36:41;24.80;48.00
37886;DHT22;23726;52.520;13.434;2022-09-11T15:39:10;24.80;48.10
37886;DHT22;23726;52.520;13.434;2022-09-11T15:41:36;24.70;48.20
37886;DHT22;23726;52.520;13.434;2022-09-11T15:44:08;24.70;48.30
37886;DHT22;23726;52.520;13.434;2022-09-11T15:46:33;24.70;48.50
37886;DHT22;23726;52.520;13.434;2022-09-11T15:48:59;24.70;48.40
37886;DHT22;23726;52.520;13.434;2022-09-11T15:51:26;24.70;48.60
37886;DHT22;23726;52.520;13.434;2022-09-11T15:53:51;24.70;48.60
37886;DHT22;23726;52.520;13.434;2022-09-11T15:56:20;24.70;48.50
37886;DHT22;23726;52.520;13.434;2022-09-11T15:58:46;24.70;48.50
37886;DHT22;23726;52.520;13.434;2022-09-11T16:01:23;24.70;48.50
37886;DHT22;23726;52.520;13.434;2022-09-11T16:04:01;24.70;48.40
37886;DHT22;23726;52.520;13.434;2022-09-11T16:06:29;24.70;48.40
37886;DHT22;23726;52.520;13.434;2022-09-11T16:08:56;24.70;48.40
37886;DHT22;23726;52.520;13.434;2022-09-11T16:11:22;24.60;48.30
37886;DHT22;23726;52.520;13.434;2022-09-11T16:13:49;24.60;48.40
37886;DHT22;23726;52.520;13.434;2022-09-11T16:16:15;24.60;48.30
37886;DHT22;23726;52.520;13.434;2022-09-11T16:18:41;24.60;48.20
37886;DHT22;23726;52.520;13.434;2022-09-11T16:21:11;24.60;48.80
37886;DHT22;23726;52.520;13.434;2022-09-11T16:23:37;24.70;48.30
37886;DHT22;23726;52.520;13.434;2022-09-11T16:26:08;24.70;48.30
37886;DHT22;23726;52.520;13.434;2022-09-11T16:28:36;24.60;48.20
37886;DHT22;23726;52.520;13.434;2022-09-11T16:31:03;24.60;48.20
37886;DHT22;23726;52.520;13.434;2022-09-11T16:33:30;24.70;48.20
37886;DHT22;23726;52.520;13.434;2022-09-11T16:36:01;24.60;48.10
37886;DHT22;23726;52.520;13.434;2022-09-11T16:38:35;24.60;48.20
37886;DHT22;23726;52.520;13.434;2022-09-11T16:41:10;24.60;48.10
37886;DHT22;23726;52.520;13.434;2022-09-11T16:43:44;24.60;48.20
37886;DHT22;23726;52.520;13.434;2022-09-11T16:46:12;24.60;48.10
37886;DHT22;23726;52.520;13.434;2022-09-11T16:48:37;24.60;48.10
37886;DHT22;23726;52.520;13.434;2022-09-11T16:51:04;24.60;48.20
37886;DHT22;23726;52.520;13.434;2022-09-11T16:53:31;24.60;48.20
37886;DHT22;23726;52.520;13.434;2022-09-11T16:55:57;24.70;48.20
37886;DHT22;23726;52.520;13.434;2022-09-11T16:58:23;24.70;48.20
37886;DHT22;23726;52.520;13.434;2022-09-11T17:00:49;24.60;48.20
37886;DHT22;23726;52.520;13.434;2022-09-11T17:03:15;24.70;48.80
37886;DHT22;23726;52.520;13.434;2022-09-11T17:05:46;24.70;48.80
37886;DHT22;23726;52.520;13.434;2022-09-11T17:08:13;24.70;48.40
37886;DHT22;23726;52.520;13.434;2022-09-11T17:10:44;24.70;48.50
37886;DHT22;23726;52.520;13.434;2022-09-11T17:13:11;24.70;48.50
37886;DHT22;23726;52.520;13.434;2022-09-11T17:15:38;24.70;48.60